Time;durP1;ratioP1;P1;durP2;ratioP2;P2;SDS_P1;SDS_P2;PMS_P1;PMS_P2;Temp;Humidity;BMP_temperature;BMP_pressure;BME280_temperature;BME280_humidity;BME280_pressure;Samples;Min_cycle;Max_cycle;Signal;HPM_P1;HPM_P2
2021/11/08 00:03:03;;;;;;;22.90;5.00;;;;;;;9.51;87.58;101200.03;6236687;28;20247;-61
2021/11/08 00:06:25;;;;;;;19.17;5.00;;;;;;;9.46;88.18;101217.38;6237974;28;20232;-61
2021/11/08 00:09:46;;;;;;;14.67;5.13;;;;;;;9.77;86.72;101214.78;6232762;28;20264;-61
2021/11/08 00:13:09;;;;;;;12.60;4.33;;;;;;;9.55;87.05;101226.91;6223657;28;20237;-62
2021/11/08 00:16:34;;;;;;;18.80;5.07;;;;;;;9.40;87.62;101232.94;6217900;28;20618;-61
2021/11/08 00:20:02;;;;;;;16.17;5.83;;;;;;;9.54;87.01;101241.66;6209239;28;21500;-62
2021/11/08 00:23:26;;;;;;;12.73;6.67;;;;;;;9.69;86.99;101245.13;6215346;28;20228;-61
2021/11/08 00:26:47;;;;;;;17.50;6.60;;;;;;;9.64;86.65;101245.97;6220276;28;20233;-61
2021/11/08 00:30:10;;;;;;;11.73;5.03;;;;;;;9.33;87.14;101246.78;6218500;28;21011;-61
2021/11/08 00:33:31;;;;;;;19.27;6.20;;;;;;;9.56;87.11;101244.25;6220331;28;20732;-61
2021/11/08 00:36:54;;;;;;;13.53;5.50;;;;;;;9.66;86.74;101246.00;6226547;28;20265;-61
2021/11/08 00:40:15;;;;;;;16.20;5.77;;;;;;;9.96;84.64;101247.75;6242945;28;20232;-61
2021/11/08 00:43:36;;;;;;;13.00;4.50;;;;;;;9.62;85.85;101263.31;6242781;28;20622;-62
2021/11/08 00:46:57;;;;;;;14.50;5.50;;;;;;;9.36;87.08;101254.59;6238966;28;20233;-61
2021/11/08 00:50:18;;;;;;;11.07;4.83;;;;;;;9.31;87.59;101262.38;6230817;28;20221;-60
2021/11/08 00:53:41;;;;;;;12.73;4.90;;;;;;;9.87;85.46;101263.38;6233867;28;20323;-62
2021/11/08 00:57:02;;;;;;;9.73;4.33;;;;;;;9.78;85.60;101271.16;6230303;28;20803;-61
2021/11/08 01:00:26;;;;;;;10.67;3.77;;;;;;;9.32;86.85;101276.22;6233161;28;20217;-61
2021/11/08 01:03:47;;;;;;;12.43;4.10;;;;;;;9.60;85.85;101272.84;6242985;28;20232;-61
2021/11/08 01:07:09;;;;;;;16.43;5.90;;;;;;;9.52;86.00;101279.78;6240491;28;20940;-62
2021/11/08 01:10:31;;;;;;;13.10;4.53;;;;;;;9.59;86.00;101284.09;6241642;28;20255;-62
2021/11/08 01:13:52;;;;;;;9.43;4.10;;;;;;;9.60;85.62;101292.78;6216317;28;20319;-61
2021/11/08 01:17:14;;;;;;;10.90;3.40;;;;;;;9.51;86.31;101293.63;6219042;28;20260;-60
2021/11/08 01:20:35;;;;;;;8.40;2.80;;;;;;;9.70;84.64;101298.88;6222272;28;20200;-61
2021/11/08 01:23:56;;;;;;;13.13;3.60;;;;;;;9.76;84.51;101299.75;6238780;28;20260;-61
2021/11/08 01:27:19;;;;;;;9.10;3.23;;;;;;;9.70;84.38;101304.09;6235904;28;20353;-61
2021/11/08 01:30:39;;;;;;;5.83;2.40;;;;;;;9.52;84.89;101305.78;6230974;28;20217;-62
2021/11/08 01:34:00;;;;;;;6.27;3.23;;;;;;;9.53;84.97;101312.69;6228166;28;20469;-61
2021/11/08 01:37:22;;;;;;;5.43;2.80;;;;;;;9.61;84.37;101321.38;6225105;28;20229;-60
2021/11/08 01:40:43;;;;;;;11.53;4.47;;;;;;;9.29;86.00;101333.41;6219178;28;20236;-61
2021/11/08 01:44:06;;;;;;;8.97;2.77;;;;;;;9.53;84.70;101323.09;6218232;28;20320;-62
2021/11/08 01:47:28;;;;;;;9.07;3.13;;;;;;;9.67;85.14;101336.13;6215980;28;20241;-62
2021/11/08 01:50:49;;;;;;;5.70;2.43;;;;;;;9.34;85.20;101335.16;6217012;28;20209;-61
2021/11/08 01:54:10;;;;;;;7.20;3.50;;;;;;;9.38;85.56;101333.44;6219379;28;20221;-61
2021/11/08 01:57:32;;;;;;;12.33;4.23;;;;;;;9.52;85.14;101334.38;6218214;28;20589;-63
2021/11/08 02:00:56;;;;;;;12.27;4.17;;;;;;;9.42;85.90;101346.47;6216600;28;20194;-62
2021/11/08 02:04:17;;;;;;;7.70;3.23;;;;;;;9.36;85.83;101342.97;6217937;28;20778;-62
2021/11/08 02:07:38;;;;;;;7.63;3.80;;;;;;;9.41;86.19;101344.72;6215765;28;20321;-61
2021/11/08 02:10:59;;;;;;;13.43;4.37;;;;;;;9.58;85.46;101350.00;6213492;28;20240;-60
2021/11/08 02:14:20;;;;;;;13.10;3.80;;;;;;;9.32;86.60;101354.22;6214858;28;20267;-61
2021/11/08 02:17:44;;;;;;;8.90;3.83;;;;;;;9.52;85.91;101365.56;6213318;28;20237;-61
2021/11/08 02:21:09;;;;;;;13.47;5.13;;;;;;;9.68;85.35;101363.03;6215706;28;20487;-61
2021/11/08 02:24:31;;;;;;;10.30;3.67;;;;;;;9.37;85.79;101365.50;6218414;28;20214;-61
2021/11/08 02:27:53;;;;;;;10.93;4.77;;;;;;;9.61;85.27;101376.00;6216549;28;20252;-62
2021/11/08 02:31:17;;;;;;;17.23;4.63;;;;;;;9.53;86.21;101379.44;6219911;28;20207;-62
2021/11/08 02:34:38;;;;;;;10.13;3.97;;;;;;;9.65;85.30;101379.47;6242569;28;20288;-62
2021/11/08 02:38:00;;;;;;;15.80;3.63;;;;;;;9.46;86.13;101389.81;6242109;28;20243;-62
2021/11/08 02:41:21;;;;;;;11.57;3.70;;;;;;;9.44;85.70;101401.94;6241155;28;20228;-62
2021/11/08 02:44:43;;;;;;;15.13;3.53;;;;;;;9.92;83.49;101398.66;6243751;28;20674;-62
2021/11/08 02:48:04;;;;;;;10.80;2.97;;;;;;;9.42;84.91;101407.97;6238750;28;20232;-62
2021/11/08 02:51:28;;;;;;;15.57;4.23;;;;;;;9.42;85.73;101397.56;6240398;28;20277;-61
2021/11/08 02:54:52;;;;;;;5.57;3.50;;;;;;;9.52;84.20;101406.28;6239464;28;20209;-62
2021/11/08 02:58:13;;;;;;;9.07;3.80;;;;;;;9.61;84.43;101404.59;6242130;28;20315;-62
2021/11/08 03:01:34;;;;;;;13.20;4.07;;;;;;;9.20;86.15;101404.41;6240141;28;20621;-62
2021/11/08 03:04:56;;;;;;;12.97;4.87;;;;;;;9.04;87.48;101416.44;6241670;28;20200;-61
2021/11/08 03:08:16;;;;;;;9.23;3.87;;;;;;;9.08;87.89;101415.59;6238373;28;20227;-61
2021/11/08 03:11:39;;;;;;;12.47;4.53;;;;;;;9.09;87.38;101419.03;6239996;28;20232;-62
2021/11/08 03:15:06;;;;;;;10.20;3.10;;;;;;;9.12;88.08;101429.47;6240999;28;20216;-61
2021/11/08 03:18:31;;;;;;;11.57;4.47;;;;;;;8.95;87.94;101426.75;6237123;28;20319;-62
2021/11/08 03:21:56;;;;;;;4.53;2.60;;;;;;;8.66;90.03;101440.34;6237701;28;20236;-61
2021/11/08 03:25:25;;;;;;;11.63;3.70;;;;;;;8.76;88.70;101442.19;6237522;28;20389;-62
2021/11/08 03:28:47;;;;;;;7.93;3.83;;;;;;;8.82;88.49;101442.25;6237859;28;20216;-61
2021/11/08 03:32:11;;;;;;;8.43;4.07;;;;;;;8.96;88.15;101446.69;6234646;28;20722;-61
2021/11/08 03:35:32;;;;;;;8.73;2.97;;;;;;;8.82;88.49;101447.44;6228084;28;20193;-62
2021/11/08 03:38:54;;;;;;;8.23;3.03;;;;;;;8.65;89.03;101459.41;6225786;28;20260;-61
2021/11/08 03:42:17;;;;;;;7.33;3.63;;;;;;;8.53;89.47;101461.88;6225783;28;20237;-62
2021/11/08 03:45:41;;;;;;;6.40;3.13;;;;;;;8.65;89.56;101456.81;6221958;28;20197;-61
2021/11/08 03:49:02;;;;;;;9.30;3.63;;;;;;;8.81;87.47;101461.28;6219869;28;20225;-61
2021/11/08 03:52:24;;;;;;;9.73;2.83;;;;;;;8.55;89.01;101465.34;6220505;28;20811;-61
2021/11/08 03:55:46;;;;;;;10.23;4.17;;;;;;;8.55;88.89;101471.44;6221684;28;21540;-61
2021/11/08 03:59:07;;;;;;;7.80;3.23;;;;;;;8.69;89.14;101466.38;6245488;28;20716;-61
2021/11/08 04:02:30;;;;;;;8.57;3.23;;;;;;;8.99;88.39;101475.25;6244951;28;20239;-61
2021/11/08 04:05:51;;;;;;;7.20;2.40;;;;;;;8.79;88.85;101482.91;6244468;28;20217;-61
2021/11/08 04:09:13;;;;;;;9.57;3.23;;;;;;;8.89;88.59;101489.91;6245333;28;20288;-61
2021/11/08 04:12:35;;;;;;;6.47;3.13;;;;;;;9.08;87.53;101490.94;6238338;28;20228;-60
2021/11/08 04:15:58;;;;;;;9.87;4.07;;;;;;;8.99;87.81;101496.06;6231643;28;20197;-60
2021/11/08 04:19:21;;;;;;;11.70;3.30;;;;;;;8.98;87.29;101495.19;6220908;28;20221;-61
2021/11/08 04:22:42;;;;;;;17.20;4.40;;;;;;;8.87;87.72;101497.69;6232454;28;20231;-61
2021/11/08 04:26:05;;;;;;;14.23;4.27;;;;;;;8.99;87.57;101501.25;6241825;28;20240;-60
2021/11/08 04:29:26;;;;;;;13.80;3.90;;;;;;;8.80;87.51;101498.50;6243895;28;20233;-61
2021/11/08 04:32:52;;;;;;;9.97;4.03;;;;;;;8.96;87.85;101517.69;6221536;28;20245;-61
2021/11/08 04:36:34;;;;;;;10.63;3.30;;;;;;;9.09;86.55;101508.25;6218030;28;20244;-62
2021/11/08 04:40:05;;;;;;;11.13;4.13;;;;;;;8.92;87.44;101515.91;6215621;28;20681;-61
2021/11/08 04:43:38;;;;;;;10.00;4.37;;;;;;;8.83;87.38;101521.88;6238395;28;20232;-61
2021/11/08 04:50:43;;;;;;;10.97;3.70;;;;;;;8.59;87.84;101516.47;6241320;28;20299;-61
2021/11/08 04:54:12;;;;;;;6.67;3.20;;;;;;;8.51;88.71;101520.69;6208507;28;20249;-62
2021/11/08 05:23:45;;;;;;;19.33;4.73;;;;;;;8.52;87.99;101556.19;6218370;28;20225;-61
2021/11/08 05:30:46;;;;;;;14.97;4.50;;;;;;;8.70;86.97;101558.97;6218248;28;20224;-62
2021/11/08 05:34:07;;;;;;;15.70;5.00;;;;;;;8.56;86.78;101556.25;6242511;28;20705;-62
2021/11/08 05:37:29;;;;;;;14.30;4.33;;;;;;;8.64;86.75;101561.50;6229728;28;20233;-60
2021/11/08 05:40:50;;;;;;;20.80;4.37;;;;;;;8.70;86.21;101571.97;6217691;28;20217;-61
2021/11/08 05:44:11;;;;;;;13.60;3.53;;;;;;;8.44;87.48;101562.16;6241707;28;20259;-62
2021/11/08 05:47:33;;;;;;;21.10;4.50;;;;;;;8.52;86.89;101567.44;6229193;28;20552;-61
2021/11/08 05:50:54;;;;;;;13.63;4.83;;;;;;;8.51;86.72;101578.69;6218681;28;20288;-61
2021/11/08 05:54:15;;;;;;;8.77;2.57;;;;;;;8.51;86.12;101583.00;6241547;28;20231;-61
2021/11/08 05:57:46;;;;;;;8.87;3.17;;;;;;;8.51;85.52;101585.59;6221809;28;20233;-62
2021/11/08 06:52:21;;;;;;;8.23;2.60;;;;;;;8.28;84.87;101644.13;6229341;28;20220;-62
2021/11/08 06:55:43;;;;;;;11.03;2.67;;;;;;;8.18;85.19;101659.53;6226741;28;20612;-62
2021/11/08 06:59:05;;;;;;;13.53;3.70;;;;;;;8.48;84.30;101660.00;6205634;28;20233;-61
2021/11/08 07:02:27;;;;;;;12.07;4.30;;;;;;;8.44;83.90;101663.41;6220674;28;20240;-63
2021/11/08 07:05:48;;;;;;;12.17;3.90;;;;;;;8.44;83.70;101676.38;6237967;28;20228;-62
2021/11/08 07:09:09;;;;;;;11.47;3.67;;;;;;;8.44;83.26;101676.38;6227714;28;20739;-62
2021/11/08 07:12:30;;;;;;;12.03;4.20;;;;;;;8.63;83.16;101679.22;6228711;28;20228;-62
2021/11/08 07:15:52;;;;;;;12.60;6.23;;;;;;;8.47;82.85;101697.19;6222612;28;20710;-62
2021/11/08 07:19:15;;;;;;;9.10;3.97;;;;;;;8.47;83.14;101678.13;6194197;28;20347;-62
2021/11/08 07:22:36;;;;;;;10.17;4.53;;;;;;;8.43;83.45;101692.81;6194886;28;20228;-61
2021/11/08 07:25:57;;;;;;;10.27;3.37;;;;;;;8.56;83.03;101688.66;6201584;28;20210;-61
2021/11/08 07:29:21;;;;;;;8.43;3.77;;;;;;;8.52;82.72;101697.25;6221905;28;20228;-62
2021/11/08 07:32:43;;;;;;;9.73;3.57;;;;;;;8.62;82.42;101693.06;6204376;28;20232;-62
2021/11/08 07:36:04;;;;;;;12.13;4.23;;;;;;;8.43;83.04;101703.22;6199665;28;20235;-62
2021/11/08 07:39:26;;;;;;;7.30;2.47;;;;;;;8.43;82.78;101699.72;6199852;28;20201;-59
2021/11/08 07:42:49;;;;;;;16.23;4.10;;;;;;;8.34;83.01;101700.44;6196859;28;20225;-62
2021/11/08 07:46:09;;;;;;;12.93;3.13;;;;;;;8.62;82.05;101706.91;6200393;28;20558;-62
2021/11/08 07:49:32;;;;;;;9.40;3.70;;;;;;;8.63;81.99;101720.78;6219306;28;20205;-62
2021/11/08 07:52:53;;;;;;;8.77;2.73;;;;;;;8.78;80.54;101714.88;6215910;28;20718;-63
2021/11/08 07:56:14;;;;;;;10.60;3.17;;;;;;;8.70;80.73;101722.59;6221519;28;20192;-62
2021/11/08 07:59:35;;;;;;;10.43;2.73;;;;;;;8.40;80.89;101725.63;6219834;28;20204;-62
2021/11/08 08:02:57;;;;;;;13.80;4.00;;;;;;;8.76;80.41;101726.97;6213330;28;20240;-61
2021/11/08 08:06:20;;;;;;;9.10;3.10;;;;;;;8.65;80.91;101747.63;6220107;28;20228;-61
2021/11/08 08:09:41;;;;;;;14.20;3.27;;;;;;;8.73;79.89;101742.53;6212933;28;20232;-63
2021/11/08 08:13:02;;;;;;;7.63;3.27;;;;;;;8.88;80.14;101737.56;6218422;28;20232;-62
2021/11/08 08:16:23;;;;;;;7.20;3.47;;;;;;;9.33;79.14;101736.34;6223692;28;20221;-61
2021/11/08 08:19:47;;;;;;;10.90;3.97;;;;;;;9.50;77.59;101738.22;6230037;28;20197;-62
2021/11/08 08:23:09;;;;;;;15.33;5.23;;;;;;;9.63;76.65;101738.38;6234360;28;20232;-62
2021/11/08 08:26:32;;;;;;;6.87;3.00;;;;;;;9.89;76.65;101744.66;6239310;28;20236;-62
2021/11/08 08:29:54;;;;;;;10.03;3.63;;;;;;;10.24;73.01;101739.75;6246856;28;20207;-62
2021/11/08 08:33:15;;;;;;;9.70;3.17;;;;;;;9.05;76.81;101740.34;6243622;28;20228;-62
2021/11/08 08:36:36;;;;;;;13.83;4.30;;;;;;;10.68;71.16;101738.28;6240334;28;20232;-60
2021/11/08 08:39:59;;;;;;;9.07;3.37;;;;;;;11.00;68.68;101728.03;6241485;28;20204;-61
2021/11/08 08:43:21;;;;;;;9.87;2.93;;;;;;;11.50;67.23;101729.91;6240495;28;20311;-62
2021/11/08 08:46:42;;;;;;;10.83;2.90;;;;;;;11.00;70.45;101733.25;6239058;28;20232;-62
2021/11/08 08:50:05;;;;;;;14.27;2.93;;;;;;;11.37;67.19;101738.56;6242677;28;20205;-61
2021/11/08 08:53:26;;;;;;;8.63;2.77;;;;;;;13.20;61.73;101728.75;6233800;28;20224;-62
2021/11/08 08:56:50;;;;;;;9.40;2.87;;;;;;;12.02;63.10;101745.63;6226258;28;20262;-61
2021/11/08 09:00:14;;;;;;;3.93;2.17;;;;;;;13.84;61.26;101750.19;6220647;28;20300;-62
2021/11/08 09:03:35;;;;;;;7.97;2.75;;;;;;;14.94;54.73;101734.22;6209473;28;20233;-61
2021/11/08 09:06:57;;;;;;;8.27;2.53;;;;;;;15.72;52.30;101742.75;6213890;28;20255;-62
2021/11/08 09:10:19;;;;;;;6.30;2.45;;;;;;;14.65;54.11;101743.31;6213663;28;20678;-64
2021/11/08 09:13:41;;;;;;;9.25;2.97;;;;;;;15.16;54.43;101740.09;6221029;28;20268;-63
2021/11/08 09:17:03;;;;;;;9.75;3.03;;;;;;;14.80;53.72;101738.78;6228662;28;20224;-64
2021/11/08 09:20:25;;;;;;;8.32;2.53;;;;;;;16.13;50.43;101754.38;6243423;28;20228;-63
2021/11/08 09:23:48;;;;;;;9.10;2.92;;;;;;;16.80;49.04;101759.28;6242528;28;20232;-64
2021/11/08 09:27:10;;;;;;;10.15;3.42;;;;;;;16.57;48.86;101759.72;6235768;28;20315;-63
2021/11/08 09:30:35;;;;;;;7.57;2.42;;;;;;;16.29;51.14;101770.75;6232667;28;20200;-63
2021/11/08 09:34:03;;;;;;;8.80;3.47;;;;;;;15.43;51.93;101767.69;6228236;28;20229;-63
2021/11/08 09:37:25;;;;;;;6.82;2.70;;;;;;;14.49;55.07;101766.16;6225935;28;20701;-62
2021/11/08 09:40:46;;;;;;;6.97;2.88;;;;;;;13.12;60.14;101766.25;6228326;28;20339;-62
2021/11/08 09:44:09;;;;;;;6.37;2.57;;;;;;;12.70;61.64;101774.25;6215838;28;20225;-61
2021/11/08 09:47:31;;;;;;;8.60;3.77;;;;;;;12.71;61.10;101773.38;6223351;28;20236;-62
2021/11/08 09:50:53;;;;;;;7.83;3.00;;;;;;;13.09;59.98;101780.22;6242919;28;20629;-62
2021/11/08 09:54:15;;;;;;;10.80;3.00;;;;;;;13.06;59.98;101784.59;6217815;28;20229;-62
2021/11/08 09:57:36;;;;;;;7.30;3.30;;;;;;;12.01;64.02;101785.63;6216775;28;20249;-62
2021/11/08 10:00:59;;;;;;;7.20;2.87;;;;;;;11.07;68.17;101789.75;6213941;28;20233;-62
2021/11/08 10:04:21;;;;;;;9.17;3.40;;;;;;;11.08;69.48;101782.78;6241336;28;20252;-62
2021/11/08 10:07:42;;;;;;;13.10;3.77;;;;;;;10.68;70.98;101788.66;6236282;28;20236;-63
2021/11/08 10:11:06;;;;;;;5.97;2.37;;;;;;;10.02;75.39;101794.25;6231313;28;20201;-63
2021/11/08 10:14:27;;;;;;;7.90;3.20;;;;;;;9.81;78.09;101799.25;6218804;28;20197;-62
2021/11/08 10:17:48;;;;;;;9.93;3.43;;;;;;;9.64;79.71;101797.34;6209156;28;20233;-62
2021/11/08 10:21:14;;;;;;;9.70;2.40;;;;;;;10.47;77.45;101794.63;6208075;28;20217;-61
2021/11/08 10:24:39;;;;;;;8.40;2.97;;;;;;;10.34;78.10;101798.84;6242915;28;20606;-62
2021/11/08 10:28:00;;;;;;;11.97;3.43;;;;;;;9.63;80.45;101800.81;6241214;28;20229;-63
2021/11/08 10:31:28;;;;;;;9.43;3.50;;;;;;;9.58;82.13;101802.47;6236702;28;20252;-61
2021/11/08 10:34:51;;;;;;;9.43;3.93;;;;;;;9.17;83.80;101796.78;6241684;28;20236;-62
2021/11/08 10:38:15;;;;;;;9.33;3.87;;;;;;;9.47;83.81;101804.06;6239076;28;20236;-62
2021/11/08 10:41:39;;;;;;;12.50;4.10;;;;;;;9.86;83.10;101806.22;6243021;28;20632;-62
2021/11/08 10:45:00;;;;;;;16.37;4.77;;;;;;;9.74;82.31;101805.25;6242779;28;20209;-63
2021/11/08 10:48:23;;;;;;;8.07;3.20;;;;;;;9.46;83.94;101795.41;6238557;28;20232;-63
2021/11/08 10:51:48;;;;;;;14.37;4.43;;;;;;;9.85;83.20;101803.63;6237016;28;20232;-61
2021/11/08 10:55:10;;;;;;;9.90;4.23;;;;;;;9.45;83.96;101798.00;6240430;28;20232;-62
2021/11/08 10:58:31;;;;;;;9.90;3.87;;;;;;;9.64;82.10;101804.28;6238266;28;20284;-63
2021/11/08 11:01:55;;;;;;;8.80;3.57;;;;;;;10.11;81.09;101801.25;6230513;28;20243;-62
2021/11/08 11:05:17;;;;;;;8.67;3.90;;;;;;;9.32;82.02;101807.38;6228960;28;20216;-62
2021/11/08 11:08:49;;;;;;;11.97;3.73;;;;;;;9.57;82.67;101803.31;6227724;28;20236;-62
2021/11/08 11:12:15;;;;;;;11.23;3.60;;;;;;;9.53;82.24;101795.47;6231269;28;20503;-62
2021/11/08 11:15:43;;;;;;;16.87;4.73;;;;;;;9.72;82.54;101797.41;6228682;28;20201;-62
2021/11/08 11:19:06;;;;;;;9.23;3.67;;;;;;;9.39;83.58;101792.72;6215335;28;20216;-63
2021/11/08 11:22:27;;;;;;;11.40;5.23;;;;;;;9.48;85.49;101784.16;6216922;28;20255;-62
2021/11/08 11:25:52;;;;;;;11.50;3.73;;;;;;;9.30;84.95;101780.47;6212581;28;20232;-62
2021/11/08 11:29:26;;;;;;;6.87;3.37;;;;;;;9.13;85.02;101795.00;6213046;28;20224;-62
2021/11/08 11:32:59;;;;;;;13.10;4.50;;;;;;;9.40;85.19;101784.06;6204413;28;20626;-62
2021/11/08 11:36:20;;;;;;;8.97;3.70;;;;;;;9.25;86.07;101779.56;6210661;28;20260;-61
2021/11/08 11:39:41;;;;;;;8.37;4.10;;;;;;;9.49;86.16;101778.97;6206939;28;20194;-62
2021/11/08 11:43:05;;;;;;;9.30;3.80;;;;;;;9.59;84.93;101773.00;6226609;28;20236;-63
2021/11/08 11:46:30;;;;;;;9.63;4.43;;;;;;;9.48;84.72;101773.75;6235907;28;20252;-62
2021/11/08 11:49:51;;;;;;;9.53;4.87;;;;;;;9.71;85.45;101764.44;6233414;28;20212;-62
2021/11/08 11:53:12;;;;;;;15.53;6.47;;;;;;;9.60;86.86;101774.75;6231320;28;20296;-62
2021/11/08 11:56:36;;;;;;;11.73;4.43;;;;;;;9.44;87.03;101770.22;6237294;28;20240;-61
2021/11/08 11:59:57;;;;;;;8.73;5.83;;;;;;;9.69;86.49;101767.88;6236304;28;20228;-61
2021/11/08 12:03:20;;;;;;;19.73;7.27;;;;;;;9.47;86.84;101765.06;6237293;28;20236;-62
2021/11/08 12:06:44;;;;;;;11.57;5.97;;;;;;;10.01;85.58;101774.25;6239652;28;20254;-63
2021/11/08 12:10:06;;;;;;;9.17;4.73;;;;;;;9.58;85.17;101773.88;6240871;28;20197;-63
2021/11/08 12:13:29;;;;;;;9.37;4.83;;;;;;;9.70;85.94;101777.44;6216546;28;20249;-62
2021/11/08 12:16:53;;;;;;;13.50;3.87;;;;;;;9.58;86.75;101773.00;6212860;28;20233;-62
2021/11/08 12:20:17;;;;;;;8.63;4.63;;;;;;;9.32;88.13;101785.69;6217197;28;20226;-62
2021/11/08 12:23:39;;;;;;;12.23;4.80;;;;;;;9.57;87.71;101782.50;6204230;28;20290;-62
2021/11/08 12:27:06;;;;;;;15.40;5.00;;;;;;;9.42;88.15;101777.16;6217627;28;20790;-62
2021/11/08 12:30:30;;;;;;;5.93;3.73;;;;;;;9.40;87.42;101778.84;6239470;28;20208;-63
2021/11/08 12:34:02;;;;;;;11.10;4.00;;;;;;;9.21;88.02;101791.66;6240404;28;20228;-62
2021/11/08 12:37:36;;;;;;;8.27;4.40;;;;;;;9.87;86.69;101781.09;6242484;28;20500;-62
2021/11/08 12:41:10;;;;;;;10.47;4.80;;;;;;;9.74;87.20;101787.03;6242773;28;20197;-61
2021/11/08 12:44:38;;;;;;;10.60;5.67;;;;;;;9.81;86.55;101781.91;6245099;28;20232;-62
2021/11/08 12:48:03;;;;;;;7.87;4.67;;;;;;;9.46;86.80;101781.56;6242085;28;20217;-62
2021/11/08 12:51:25;;;;;;;12.07;4.37;;;;;;;9.60;87.33;101777.34;6242465;28;20227;-62
2021/11/08 12:54:51;;;;;;;4.30;2.77;;;;;;;9.66;87.35;101786.94;6244256;28;20209;-62
2021/11/08 12:58:12;;;;;;;5.87;2.83;;;;;;;9.52;87.40;101805.00;6233314;28;20248;-61
2021/11/08 13:01:40;;;;;;;8.37;3.97;;;;;;;9.54;88.93;101803.31;6233314;28;20232;-61
2021/11/08 13:05:04;;;;;;;5.57;3.90;;;;;;;9.68;88.84;101795.63;6233062;28;20282;-62
2021/11/08 13:08:29;;;;;;;7.20;3.00;;;;;;;9.62;87.79;101812.06;6231677;28;20343;-62
2021/11/08 13:11:54;;;;;;;11.97;3.70;;;;;;;9.59;88.59;101816.34;6232508;28;20224;-62
2021/11/08 13:15:20;;;;;;;4.83;2.63;;;;;;;10.08;86.32;101816.84;6234073;28;20204;-62
2021/11/08 13:18:44;;;;;;;3.70;2.80;;;;;;;9.74;87.40;101816.50;6230196;28;20228;-60
2021/11/08 13:22:13;;;;;;;9.00;3.67;;;;;;;10.08;86.67;101813.34;6234494;28;20804;-61
2021/11/08 13:25:37;;;;;;;7.10;2.87;;;;;;;9.89;86.95;101807.09;6226759;28;20303;-62
2021/11/08 13:29:00;;;;;;;4.27;2.90;;;;;;;9.69;88.05;101812.97;6219387;28;20330;-62
2021/11/08 13:32:21;;;;;;;5.43;3.03;;;;;;;9.82;88.39;101808.78;6217401;28;20229;-62
2021/11/08 13:35:43;;;;;;;8.17;3.67;;;;;;;10.02;88.22;101812.47;6220528;28;20198;-61
2021/11/08 13:39:05;;;;;;;3.50;2.73;;;;;;;9.88;88.68;101803.63;6219545;28;20217;-62
2021/11/08 13:42:26;;;;;;;4.37;2.70;;;;;;;9.64;89.16;101802.53;6229938;28;20237;-62
2021/11/08 13:45:52;;;;;;;3.80;2.93;;;;;;;9.73;89.34;101798.28;6242612;28;20236;-61
2021/11/08 13:49:16;;;;;;;7.40;3.93;;;;;;;9.89;89.64;101808.00;6243907;28;21286;-63
2021/11/08 13:52:37;;;;;;;5.87;2.73;;;;;;;9.79;90.07;101803.53;6236261;28;20319;-62
2021/11/08 13:56:00;;;;;;;4.43;2.30;;;;;;;9.73;89.74;101809.56;6242100;28;20628;-62
2021/11/08 13:59:24;;;;;;;7.47;2.57;;;;;;;10.01;88.85;101808.09;6212909;28;20669;-62
2021/11/08 14:02:47;;;;;;;4.30;3.20;;;;;;;10.11;88.34;101795.16;6225947;28;20241;-61
2021/11/08 14:06:09;;;;;;;5.53;2.53;;;;;;;9.91;88.70;101798.47;6237516;28;21058;-62
2021/11/08 14:09:30;;;;;;;3.83;2.47;;;;;;;10.06;88.72;101813.34;6236504;28;20659;-62
2021/11/08 14:12:51;;;;;;;4.93;2.90;;;;;;;10.04;88.98;101818.53;6218886;28;20803;-63
2021/11/08 14:16:12;;;;;;;3.10;2.57;;;;;;;10.19;88.28;101824.72;6212769;28;20209;-61
2021/11/08 14:19:35;;;;;;;5.53;2.90;;;;;;;10.29;88.05;101821.34;6210044;28;20556;-62
2021/11/08 14:22:55;;;;;;;3.60;3.10;;;;;;;10.31;87.35;101824.84;6212050;28;20226;-61
2021/11/08 14:26:19;;;;;;;5.83;2.70;;;;;;;10.00;87.32;101824.59;6209194;28;20692;-61
2021/11/08 14:29:39;;;;;;;3.33;2.50;;;;;;;10.34;86.63;101829.25;6212761;28;20193;-61
2021/11/08 14:33:00;;;;;;;4.53;2.10;;;;;;;10.33;87.03;101830.09;6215192;28;20240;-62
2021/11/08 14:36:25;;;;;;;5.00;2.40;;;;;;;10.52;85.40;101836.31;6217398;28;20221;-62
2021/11/08 14:39:48;;;;;;;4.03;2.17;;;;;;;10.53;85.61;101835.47;6215624;28;20943;-62
2021/11/08 14:43:14;;;;;;;4.60;2.63;;;;;;;10.83;84.25;101834.78;6229844;28;20278;-62
2021/11/08 14:46:43;;;;;;;5.07;2.67;;;;;;;10.31;86.62;101843.09;6240207;28;20622;-62
2021/11/08 14:50:07;;;;;;;4.77;3.40;;;;;;;10.36;87.13;101858.75;6241572;28;20514;-63
2021/11/08 14:53:29;;;;;;;5.33;2.73;;;;;;;10.62;86.66;101869.38;6241276;28;20228;-62
2021/11/08 14:56:53;;;;;;;4.50;2.47;;;;;;;10.79;84.47;101862.56;6238466;28;20236;-62
2021/11/08 15:00:18;;;;;;;3.93;3.00;;;;;;;11.02;83.04;101861.84;6239218;28;20213;-61
2021/11/08 15:03:39;;;;;;;5.20;2.37;;;;;;;10.75;83.64;101863.41;6234423;28;20228;-62
2021/11/08 15:07:03;;;;;;;9.13;3.33;;;;;;;10.68;84.70;101860.75;6234193;28;20228;-62
2021/11/08 15:10:28;;;;;;;4.33;3.07;;;;;;;10.70;85.03;101866.81;6236236;28;20303;-61
2021/11/08 15:13:52;;;;;;;8.17;3.00;;;;;;;10.87;84.36;101869.56;6233624;28;20562;-62
2021/11/08 15:17:13;;;;;;;5.50;3.20;;;;;;;10.72;84.86;101879.03;6236549;28;20605;-62
2021/11/08 15:20:40;;;;;;;4.00;2.70;;;;;;;10.95;83.29;101875.69;6238206;28;20228;-61
2021/11/08 15:24:07;;;;;;;3.73;2.80;;;;;;;10.96;86.59;101873.09;6237516;28;20247;-62
2021/11/08 15:27:30;;;;;;;9.10;3.93;;;;;;;11.35;85.51;101887.22;6230550;28;20244;-63
2021/11/08 15:30:56;;;;;;;7.07;3.03;;;;;;;10.86;83.98;101888.66;6233630;28;20224;-64
2021/11/08 15:34:18;;;;;;;4.07;3.50;;;;;;;11.01;83.62;101891.34;6238314;28;20228;-64
2021/11/08 15:37:48;;;;;;;4.37;2.70;;;;;;;10.95;84.12;101891.31;6236032;28;20699;-65
2021/11/08 15:41:10;;;;;;;4.87;3.00;;;;;;;10.89;84.45;101901.72;6224737;28;20200;-63
2021/11/08 15:44:32;;;;;;;9.23;4.17;;;;;;;10.68;84.70;101918.91;6208849;28;20204;-63
2021/11/08 15:47:56;;;;;;;5.43;4.20;;;;;;;10.87;84.74;101914.72;6204180;28;20233;-63
2021/11/08 15:51:20;;;;;;;7.20;4.03;;;;;;;10.94;84.39;101921.72;6199675;28;20213;-63
2021/11/08 15:54:41;;;;;;;8.53;4.07;;;;;;;10.85;83.62;101921.66;6203298;28;20202;-64
2021/11/08 15:58:01;;;;;;;5.67;3.43;;;;;;;11.08;83.65;101929.66;6200220;28;20233;-64
2021/11/08 16:01:24;;;;;;;10.97;5.43;;;;;;;11.30;82.73;101934.97;6197177;28;20237;-64
2021/11/08 16:04:45;;;;;;;5.87;4.63;;;;;;;11.00;83.74;101944.38;6194283;28;20209;-64
2021/11/08 16:08:06;;;;;;;6.07;4.10;;;;;;;11.10;83.67;101943.56;6193856;28;20233;-64
2021/11/08 16:11:27;;;;;;;7.00;4.10;;;;;;;11.10;83.42;101948.78;6205500;28;20241;-65
2021/11/08 16:14:48;;;;;;;7.43;4.13;;;;;;;10.94;83.27;101953.00;6196969;28;20198;-64
2021/11/08 16:18:11;;;;;;;6.23;3.50;;;;;;;10.88;83.57;101966.00;6199302;28;20228;-64
2021/11/08 16:21:32;;;;;;;5.20;4.07;;;;;;;11.02;83.22;101966.09;6205397;28;20512;-64
2021/11/08 16:24:53;;;;;;;4.57;1.93;;;;;;;10.90;82.97;101977.31;6203967;28;20587;-65
2021/11/08 16:28:14;;;;;;;5.33;2.03;;;;;;;10.95;83.16;101979.94;6219606;28;21801;-65
2021/11/08 16:31:58;;;;;;;6.00;2.53;;;;;;;10.80;83.79;101976.34;6227241;28;20233;-65
2021/11/08 16:35:20;;;;;;;6.03;2.50;;;;;;;10.84;83.86;101978.13;6228231;28;20659;-63
2021/11/08 16:38:42;;;;;;;3.80;2.60;;;;;;;11.04;83.74;101985.22;6222100;28;20351;-64
2021/11/08 16:42:06;;;;;;;5.07;2.17;;;;;;;10.97;83.04;101983.44;6231442;28;20628;-63
2021/11/08 16:45:30;;;;;;;2.83;2.10;;;;;;;11.11;82.91;101996.56;6236784;28;20227;-63
2021/11/08 16:48:53;;;;;;;4.73;1.97;;;;;;;11.07;82.18;102000.91;6234224;28;20240;-63
2021/11/08 16:52:17;;;;;;;3.63;2.47;;;;;;;11.19;81.97;102015.78;6229333;28;20229;-64
2021/11/08 16:55:38;;;;;;;5.47;2.47;;;;;;;10.99;82.42;102019.09;6218136;28;20557;-63
2021/11/08 16:58:59;;;;;;;4.60;1.80;;;;;;;10.78;82.86;102004.13;6218682;28;20220;-64
2021/11/08 17:02:24;;;;;;;7.43;3.07;;;;;;;11.13;82.65;102010.50;6228577;28;20236;-64
2021/11/08 17:05:49;;;;;;;4.27;2.47;;;;;;;11.00;82.53;102013.00;6242664;28;20204;-64
2021/11/08 17:09:22;;;;;;;4.17;2.23;;;;;;;11.03;82.76;102017.34;6240268;28;20221;-64
2021/11/08 17:16:24;;;;;;;3.27;2.17;;;;;;;10.94;83.12;102039.03;6206073;28;20225;-63